Time;durP1;ratioP1;P1;durP2;ratioP2;P2;SDS_P1;SDS_P2;PMS_P1;PMS_P2;Temp;Humidity;BMP_temperature;BMP_pressure;BME280_temperature;BME280_humidity;BME280_pressure;Samples;Min_cycle;Max_cycle;Signal;HPM_P1;HPM_P2
2022/04/05 00:00:17;;;;;;;2.20;2.00;;;5.90;99.90;;;;;;4992947;28;20173;-67
2022/04/05 00:02:42;;;;;;;2.80;2.30;;;5.90;99.90;;;;;;4992908;28;20303;-67
2022/04/05 00:05:08;;;;;;;2.60;1.50;;;5.90;99.90;;;;;;4992685;28;20937;-67
2022/04/05 00:07:33;;;;;;;2.80;2.00;;;5.90;99.90;;;;;;4992844;28;20169;-67
2022/04/05 00:09:59;;;;;;;2.60;2.40;;;5.90;99.90;;;;;;4992811;28;20196;-67
2022/04/05 00:12:24;;;;;;;1.43;1.33;;;5.90;99.90;;;;;;4992596;28;20176;-66
2022/04/05 00:14:50;;;;;;;1.93;1.83;;;5.80;99.90;;;;;;4992594;28;20544;-67
2022/04/05 00:17:16;;;;;;;1.80;1.53;;;5.80;99.90;;;;;;4992684;28;20177;-67
2022/04/05 00:19:41;;;;;;;1.23;1.10;;;5.80;99.90;;;;;;4992912;28;20695;-67
2022/04/05 00:22:07;;;;;;;2.30;1.43;;;5.80;99.90;;;;;;4992543;28;20416;-67
2022/04/05 00:24:32;;;;;;;3.90;1.83;;;5.70;99.90;;;;;;4991120;28;20200;-67
2022/04/05 00:26:58;;;;;;;2.10;1.27;;;5.70;99.90;;;;;;4992722;28;20571;-67
2022/04/05 00:29:24;;;;;;;2.30;1.50;;;5.70;99.90;;;;;;4992408;28;20595;-67
2022/04/05 00:31:50;;;;;;;0.83;0.83;;;5.70;99.90;;;;;;4992568;28;20173;-67
2022/04/05 00:34:16;;;;;;;1.67;1.10;;;5.60;99.90;;;;;;4992537;28;20169;-67
2022/04/05 00:36:41;;;;;;;2.43;1.47;;;5.70;99.90;;;;;;4991524;28;20902;-69
2022/04/05 00:39:07;;;;;;;2.00;1.00;;;5.70;99.90;;;;;;4992064;28;20251;-67
2022/04/05 00:41:32;;;;;;;1.00;0.90;;;5.70;99.90;;;;;;4992113;28;20613;-68
2022/04/05 00:43:58;;;;;;;1.13;1.03;;;5.70;99.90;;;;;;4992223;28;20263;-67
2022/04/05 00:46:23;;;;;;;1.10;1.00;;;5.60;99.90;;;;;;4992299;28;20259;-68
2022/04/05 00:48:56;;;;;;;1.17;1.17;;;5.60;99.90;;;;;;4992337;28;20200;-68
2022/04/05 00:51:23;;;;;;;1.27;1.17;;;5.70;99.90;;;;;;4992356;28;20253;-67
2022/04/05 00:53:52;;;;;;;1.57;0.77;;;5.70;99.90;;;;;;4992733;28;20882;-68
2022/04/05 00:56:19;;;;;;;3.73;1.73;;;5.60;99.90;;;;;;4992328;28;20419;-68
2022/04/05 00:58:47;;;;;;;0.80;0.80;;;5.70;99.90;;;;;;4992039;28;20440;-68
2022/04/05 01:01:18;;;;;;;3.07;1.27;;;5.70;99.90;;;;;;4992398;28;20420;-68
2022/04/05 01:03:49;;;;;;;0.80;0.80;;;5.70;99.90;;;;;;4991980;28;20599;-68
2022/04/05 01:06:39;;;;;;;2.70;1.20;;;5.70;99.90;;;;;;4992230;28;20409;-68
2022/04/05 01:09:09;;;;;;;1.13;1.03;;;5.70;99.90;;;;;;4986879;28;21024;-68
2022/04/05 01:11:34;;;;;;;0.70;0.70;;;5.70;99.90;;;;;;4991858;28;20437;-68
2022/04/05 01:14:00;;;;;;;4.40;1.80;;;5.70;99.90;;;;;;4991841;28;20496;-68
2022/04/05 01:16:26;;;;;;;1.40;1.30;;;5.70;99.90;;;;;;4991859;28;20192;-68
2022/04/05 01:18:52;;;;;;;1.10;1.00;;;5.70;99.90;;;;;;4990435;28;20349;-68
2022/04/05 01:21:18;;;;;;;2.30;1.03;;;5.70;99.90;;;;;;4991731;28;20444;-66
2022/04/05 01:24:04;;;;;;;0.70;0.70;;;5.70;99.90;;;;;;4990288;28;20212;-66
2022/04/05 01:26:46;;;;;;;2.50;1.23;;;5.80;99.90;;;;;;4991439;28;20404;-67
2022/04/05 01:29:13;;;;;;;1.00;0.90;;;5.80;99.90;;;;;;4991537;28;20428;-67
2022/04/05 01:31:44;;;;;;;2.70;2.50;;;5.80;99.90;;;;;;4990251;28;20480;-67
2022/04/05 01:34:11;;;;;;;1.17;1.07;;;5.80;99.90;;;;;;4991588;28;20404;-67
2022/04/05 01:36:57;;;;;;;1.10;1.00;;;5.80;99.90;;;;;;4991891;28;20482;-68
2022/04/05 01:39:25;;;;;;;1.07;0.97;;;5.80;99.90;;;;;;4992002;28;20974;-68
2022/04/05 01:41:53;;;;;;;1.27;1.10;;;5.80;99.90;;;;;;4991613;28;20416;-68
2022/04/05 01:44:18;;;;;;;1.20;1.00;;;5.80;99.90;;;;;;4991448;28;20455;-67
2022/04/05 01:46:44;;;;;;;1.40;1.30;;;5.80;99.90;;;;;;4991529;28;20424;-67
2022/04/05 01:49:11;;;;;;;7.03;1.27;;;5.80;99.90;;;;;;4994076;28;20188;-68
2022/04/05 01:51:37;;;;;;;0.70;0.70;;;5.80;99.90;;;;;;4995649;28;20185;-68
2022/04/05 01:54:05;;;;;;;1.30;0.97;;;5.80;99.90;;;;;;4995491;28;20503;-68
2022/04/05 01:56:32;;;;;;;2.20;1.80;;;5.80;99.90;;;;;;4995528;28;20428;-68
2022/04/05 01:58:58;;;;;;;16.23;1.27;;;5.80;99.90;;;;;;4995346;28;20444;-68
2022/04/05 02:01:24;;;;;;;2.50;1.10;;;5.70;99.90;;;;;;4995222;28;20416;-68
2022/04/05 02:03:49;;;;;;;1.20;1.00;;;5.70;99.90;;;;;;4995081;28;20455;-68
2022/04/05 02:06:15;;;;;;;0.90;0.83;;;5.80;99.90;;;;;;4995022;28;20443;-68
2022/04/05 02:08:40;;;;;;;1.90;1.03;;;5.70;99.90;;;;;;4995101;28;20197;-68
2022/04/05 02:11:06;;;;;;;0.90;0.90;;;5.70;99.90;;;;;;4995290;28;20196;-68
2022/04/05 02:13:31;;;;;;;2.73;0.90;;;5.70;99.90;;;;;;4994674;28;20173;-68
2022/04/05 02:16:01;;;;;;;1.00;0.90;;;5.70;99.90;;;;;;4995296;28;20184;-66
2022/04/05 02:18:26;;;;;;;2.23;1.00;;;5.70;99.90;;;;;;4994813;28;20196;-68
2022/04/05 02:20:54;;;;;;;0.90;0.90;;;5.70;99.90;;;;;;4994906;28;20416;-67
2022/04/05 02:23:20;;;;;;;1.27;0.80;;;5.70;99.90;;;;;;4994903;28;20189;-67
2022/04/05 02:25:45;;;;;;;5.60;1.23;;;5.70;99.90;;;;;;4994576;28;20459;-67
2022/04/05 02:28:11;;;;;;;1.00;0.90;;;5.70;99.90;;;;;;4994634;28;20215;-68
2022/04/05 02:30:38;;;;;;;0.73;0.73;;;5.70;99.90;;;;;;4995064;28;20276;-67
2022/04/05 02:33:04;;;;;;;1.17;1.07;;;5.70;99.90;;;;;;4995072;28;20169;-67
2022/04/05 02:35:29;;;;;;;5.37;1.17;;;5.70;99.90;;;;;;4994886;28;20448;-68
2022/04/05 02:37:58;;;;;;;0.97;0.97;;;5.70;99.90;;;;;;4993651;28;20200;-67
2022/04/05 02:40:23;;;;;;;1.63;1.17;;;5.70;99.90;;;;;;4995064;28;20658;-67
2022/04/05 02:42:49;;;;;;;1.70;1.10;;;5.70;99.90;;;;;;4995029;28;20412;-67
2022/04/05 02:45:14;;;;;;;1.00;0.90;;;5.70;99.90;;;;;;4996043;28;20211;-68
2022/04/05 02:47:40;;;;;;;1.40;1.00;;;5.60;99.90;;;;;;4996399;28;20173;-68
2022/04/05 02:50:05;;;;;;;2.07;1.00;;;5.60;99.90;;;;;;4994202;28;20180;-68
2022/04/05 02:52:31;;;;;;;1.23;1.00;;;5.60;99.90;;;;;;4994250;28;20177;-68
2022/04/05 02:54:56;;;;;;;1.10;1.10;;;5.60;99.90;;;;;;4994079;28;20185;-68
2022/04/05 02:57:22;;;;;;;2.60;2.40;;;5.60;99.90;;;;;;4994150;28;20177;-68
2022/04/05 02:59:47;;;;;;;3.03;2.77;;;5.60;99.90;;;;;;4993497;28;20229;-68
2022/04/05 03:02:12;;;;;;;2.07;1.57;;;5.60;99.90;;;;;;4994235;28;20181;-68
2022/04/05 03:04:38;;;;;;;2.10;1.07;;;5.60;99.90;;;;;;4993862;28;20200;-68
2022/04/05 03:07:04;;;;;;;1.17;0.97;;;5.60;99.90;;;;;;4994067;28;20235;-68
2022/04/05 03:09:29;;;;;;;0.87;0.87;;;5.60;99.90;;;;;;4994214;28;20214;-68
2022/04/05 03:11:55;;;;;;;5.90;2.40;;;5.60;99.90;;;;;;4993879;28;20169;-68
2022/04/05 03:14:21;;;;;;;1.00;0.90;;;5.60;99.90;;;;;;4994522;28;20173;-68
2022/04/05 03:16:47;;;;;;;0.70;0.70;;;5.60;99.90;;;;;;4993959;28;20590;-69
2022/04/05 03:19:12;;;;;;;1.10;1.00;;;5.60;99.90;;;;;;4994005;28;20440;-67
2022/04/05 03:21:38;;;;;;;1.47;1.40;;;5.60;99.90;;;;;;4993817;28;20165;-67
2022/04/05 03:24:04;;;;;;;1.07;0.97;;;5.60;99.90;;;;;;4993340;28;20259;-67
2022/04/05 03:26:30;;;;;;;2.80;1.60;;;5.60;99.90;;;;;;4993410;28;20248;-67
2022/04/05 03:28:57;;;;;;;2.97;1.53;;;5.50;99.90;;;;;;4993717;28;20431;-67
2022/04/05 03:31:22;;;;;;;0.70;0.70;;;5.50;99.90;;;;;;4993572;28;20412;-67
2022/04/05 03:33:48;;;;;;;2.10;1.10;;;5.50;99.90;;;;;;4993485;28;20486;-67
2022/04/05 03:36:13;;;;;;;2.93;0.87;;;5.50;99.90;;;;;;4993478;28;20652;-66
2022/04/05 03:38:39;;;;;;;2.00;1.20;;;5.50;99.90;;;;;;4993029;28;20212;-67
2022/04/05 03:41:05;;;;;;;1.80;1.70;;;5.50;99.90;;;;;;4993139;28;20211;-66
2022/04/05 03:43:31;;;;;;;1.00;1.00;;;5.50;99.90;;;;;;4993268;28;20173;-67
2022/04/05 03:45:57;;;;;;;2.30;1.30;;;5.50;99.90;;;;;;4993094;28;20173;-67
2022/04/05 03:48:22;;;;;;;1.67;1.00;;;5.50;99.90;;;;;;4993022;28;20423;-67
2022/04/05 03:50:48;;;;;;;1.10;1.00;;;5.50;99.90;;;;;;4993075;28;20200;-67
2022/04/05 03:53:14;;;;;;;1.80;1.70;;;5.50;99.90;;;;;;4993027;28;20216;-67
2022/04/05 03:55:42;;;;;;;1.03;1.00;;;5.40;99.90;;;;;;4992930;28;20173;-67
2022/04/05 03:58:07;;;;;;;1.30;1.20;;;5.50;99.90;;;;;;4992777;28;20519;-67
2022/04/05 04:00:33;;;;;;;3.33;1.53;;;5.50;99.90;;;;;;4992963;28;20446;-67
2022/04/05 04:02:59;;;;;;;3.73;1.60;;;5.50;99.90;;;;;;4992726;28;20177;-67
2022/04/05 04:05:25;;;;;;;1.97;1.00;;;5.50;99.90;;;;;;4991028;28;20203;-67
2022/04/05 04:07:51;;;;;;;1.73;1.10;;;5.50;99.90;;;;;;4992668;28;20587;-68
2022/04/05 04:10:16;;;;;;;1.87;1.77;;;5.50;99.90;;;;;;4992360;28;20428;-68
2022/04/05 04:12:42;;;;;;;1.87;1.40;;;5.50;99.90;;;;;;4992915;28;20259;-67
2022/04/05 04:15:08;;;;;;;1.43;1.30;;;5.50;99.90;;;;;;4992868;28;20936;-67
2022/04/05 04:17:34;;;;;;;3.27;1.43;;;5.50;99.90;;;;;;4992994;28;20330;-67
2022/04/05 04:20:00;;;;;;;2.13;1.50;;;5.50;99.90;;;;;;4992573;28;20427;-67
2022/04/05 04:22:27;;;;;;;1.93;1.30;;;5.50;99.90;;;;;;4991382;28;20195;-67
2022/04/05 04:24:52;;;;;;;4.20;1.10;;;5.50;99.90;;;;;;4992605;28;20531;-67
2022/04/05 04:27:18;;;;;;;1.00;1.00;;;5.50;99.90;;;;;;4992776;28;20508;-67
2022/04/05 04:29:43;;;;;;;1.97;1.13;;;5.50;99.90;;;;;;4992874;28;20537;-67
2022/04/05 04:32:09;;;;;;;1.37;1.10;;;5.50;99.90;;;;;;4992530;28;20687;-67
2022/04/05 04:34:35;;;;;;;3.03;1.57;;;5.50;99.90;;;;;;4992735;28;20531;-68
2022/04/05 04:37:02;;;;;;;11.57;2.27;;;5.50;99.90;;;;;;4992432;28;20278;-66
2022/04/05 04:39:28;;;;;;;5.87;1.47;;;5.40;99.90;;;;;;5024118;23;20224;-72
2022/04/05 04:41:56;;;;;;;1.10;1.00;;;5.40;99.90;;;;;;5011699;28;20408;-72
2022/04/05 04:44:22;;;;;;;1.40;1.17;;;5.40;99.90;;;;;;5011917;28;20192;-72
2022/04/05 04:46:47;;;;;;;2.60;1.10;;;5.40;99.90;;;;;;5012039;28;20403;-72
2022/04/05 04:49:13;;;;;;;2.87;1.20;;;5.40;99.90;;;;;;5011796;28;20192;-72
2022/04/05 04:51:38;;;;;;;3.23;1.57;;;5.40;99.90;;;;;;5010616;28;20176;-72
2022/04/05 04:54:03;;;;;;;4.00;1.33;;;5.40;99.90;;;;;;5012057;28;20805;-72
2022/04/05 04:56:29;;;;;;;4.60;1.40;;;5.40;99.90;;;;;;5011815;28;20290;-71
2022/04/05 04:58:54;;;;;;;1.43;1.30;;;5.40;99.90;;;;;;5011453;28;20251;-70
2022/04/05 05:01:20;;;;;;;1.33;1.23;;;5.40;99.90;;;;;;5011751;28;20168;-72
2022/04/05 05:03:45;;;;;;;3.20;1.83;;;5.40;99.90;;;;;;5011659;28;20602;-72
2022/04/05 05:06:11;;;;;;;3.00;0.90;;;5.40;99.90;;;;;;5011397;28;20639;-72
2022/04/05 05:08:37;;;;;;;7.83;1.90;;;5.50;99.90;;;;;;5011308;28;20188;-71
2022/04/05 05:11:02;;;;;;;1.20;1.10;;;5.50;99.90;;;;;;5011643;28;20180;-71
2022/04/05 05:13:28;;;;;;;0.83;0.83;;;5.50;99.90;;;;;;5011160;28;20173;-71
2022/04/05 05:15:54;;;;;;;6.67;1.30;;;5.50;99.90;;;;;;5011070;28;20182;-71
2022/04/05 05:18:20;;;;;;;1.00;0.90;;;5.50;99.90;;;;;;5011231;28;20180;-71
2022/04/05 05:20:45;;;;;;;1.20;1.10;;;5.50;99.90;;;;;;5011094;28;20207;-71
2022/04/05 05:23:11;;;;;;;1.23;1.07;;;5.50;99.90;;;;;;5010854;28;20180;-71
2022/04/05 05:25:36;;;;;;;2.40;1.17;;;5.60;99.90;;;;;;5011326;28;20204;-71
2022/04/05 05:28:02;;;;;;;2.50;1.00;;;5.60;99.90;;;;;;5011115;28;20179;-71
2022/04/05 05:30:28;;;;;;;2.60;1.73;;;5.60;99.90;;;;;;5009745;28;20199;-71
2022/04/05 05:32:53;;;;;;;1.30;1.20;;;5.60;99.90;;;;;;5011348;28;20607;-73
2022/04/05 05:35:21;;;;;;;1.23;1.13;;;5.60;99.90;;;;;;5010955;28;20176;-71
2022/04/05 05:37:47;;;;;;;2.10;1.37;;;5.70;99.90;;;;;;5010861;28;20465;-71
2022/04/05 05:40:14;;;;;;;1.57;1.37;;;5.70;99.90;;;;;;5010937;28;20918;-71
2022/04/05 05:42:59;;;;;;;3.53;1.40;;;5.70;99.90;;;;;;5010890;28;20417;-71
2022/04/05 05:45:27;;;;;;;1.43;1.33;;;5.70;99.90;;;;;;5010976;28;20462;-71
2022/04/05 05:47:53;;;;;;;1.30;1.20;;;5.70;99.90;;;;;;5011111;28;20407;-71
2022/04/05 05:50:19;;;;;;;1.00;0.80;;;5.70;99.90;;;;;;5010957;28;20430;-71
2022/04/05 05:52:46;;;;;;;3.37;1.97;;;5.70;99.90;;;;;;5011190;28;20576;-71
2022/04/05 05:55:14;;;;;;;1.10;0.90;;;5.70;99.90;;;;;;5011273;28;20403;-72
2022/04/05 05:57:40;;;;;;;1.23;1.10;;;5.70;99.90;;;;;;5011195;28;20474;-71
2022/04/05 06:00:08;;;;;;;3.70;1.80;;;5.80;99.90;;;;;;5009685;28;20443;-71
2022/04/05 06:02:40;;;;;;;4.20;1.67;;;5.80;99.90;;;;;;5011020;28;20184;-71
2022/04/05 06:05:08;;;;;;;1.97;1.83;;;5.80;99.90;;;;;;5010798;28;20517;-71
2022/04/05 06:07:34;;;;;;;0.97;0.87;;;5.80;99.90;;;;;;5011125;28;20407;-72
2022/04/05 06:10:04;;;;;;;2.80;1.63;;;5.90;99.90;;;;;;5009875;28;20478;-71
2022/04/05 06:12:29;;;;;;;4.83;1.20;;;5.80;99.90;;;;;;5012195;28;20407;-71
2022/04/05 06:14:55;;;;;;;1.67;1.10;;;5.80;99.90;;;;;;5012168;28;20415;-71
2022/04/05 06:17:20;;;;;;;3.27;1.03;;;5.80;99.90;;;;;;5010988;28;20649;-72
2022/04/05 06:19:46;;;;;;;1.40;1.30;;;5.90;99.90;;;;;;5010874;28;20554;-72
2022/04/05 06:22:12;;;;;;;1.47;1.30;;;6.00;99.90;;;;;;5010758;28;20205;-72
2022/04/05 06:24:38;;;;;;;1.37;1.27;;;6.00;99.90;;;;;;5010846;28;20463;-72
2022/04/05 06:27:04;;;;;;;1.07;1.07;;;6.00;99.90;;;;;;5011115;28;20422;-71
2022/04/05 06:29:29;;;;;;;4.10;2.40;;;6.00;99.90;;;;;;5010940;28;20423;-72
2022/04/05 06:31:55;;;;;;;1.10;1.00;;;6.20;99.90;;;;;;5010984;28;20255;-72
2022/04/05 06:34:21;;;;;;;3.23;1.83;;;6.30;99.90;;;;;;5012082;28;20168;-72
2022/04/05 06:36:46;;;;;;;0.93;0.93;;;6.30;99.90;;;;;;5012298;28;20172;-71
2022/04/05 06:39:13;;;;;;;3.27;1.20;;;6.10;99.90;;;;;;5013709;28;20216;-71
2022/04/05 06:41:39;;;;;;;1.00;1.00;;;6.00;99.90;;;;;;5014022;28;20665;-70
2022/04/05 06:44:05;;;;;;;2.40;1.03;;;6.10;99.90;;;;;;5014016;28;20454;-71
2022/04/05 06:46:31;;;;;;;1.23;1.10;;;6.10;99.90;;;;;;5013886;28;20498;-71
2022/04/05 06:48:57;;;;;;;1.30;1.10;;;6.00;99.90;;;;;;5013823;28;20538;-71
2022/04/05 06:51:23;;;;;;;4.30;2.60;;;6.10;99.90;;;;;;5013819;28;20176;-71
2022/04/05 06:53:48;;;;;;;2.47;0.97;;;6.10;99.90;;;;;;5013451;28;20168;-70
2022/04/05 06:56:14;;;;;;;0.90;0.90;;;6.00;99.90;;;;;;5013670;28;20418;-71
2022/04/05 06:58:39;;;;;;;1.20;1.10;;;6.20;99.90;;;;;;5013451;28;20207;-71
2022/04/05 07:01:05;;;;;;;1.13;1.03;;;6.10;99.90;;;;;;5013654;28;20180;-71
2022/04/05 07:03:31;;;;;;;5.33;1.50;;;6.00;99.90;;;;;;5013880;28;20238;-71
2022/04/05 07:05:58;;;;;;;3.47;1.30;;;6.10;99.90;;;;;;5013992;28;20825;-71
2022/04/05 07:08:23;;;;;;;0.80;0.80;;;6.70;99.90;;;;;;5013723;28;20168;-71
2022/04/05 07:10:50;;;;;;;0.83;0.83;;;7.00;99.90;;;;;;5013733;28;20423;-72
2022/04/05 07:13:16;;;;;;;1.30;1.20;;;7.30;99.90;;;;;;5012519;28;20188;-72
2022/04/05 07:15:41;;;;;;;3.73;1.10;;;7.60;99.90;;;;;;5013566;28;20411;-72
2022/04/05 07:18:07;;;;;;;1.23;1.00;;;8.20;99.90;;;;;;5013932;28;20187;-72
2022/04/05 07:20:37;;;;;;;1.10;1.00;;;8.20;99.90;;;;;;5013687;28;20686;-72
2022/04/05 07:23:03;;;;;;;2.30;1.13;;;7.60;99.90;;;;;;5013988;28;20190;-72
2022/04/05 07:25:28;;;;;;;1.07;0.73;;;8.40;99.90;;;;;;5013760;28;20456;-72
2022/04/05 07:27:54;;;;;;;4.00;1.00;;;8.40;99.90;;;;;;5013621;28;21126;-73
2022/04/05 07:30:20;;;;;;;1.03;0.93;;;8.50;99.90;;;;;;5013068;28;20200;-72
2022/04/05 07:32:46;;;;;;;1.93;0.73;;;7.80;99.90;;;;;;5013369;28;20185;-72
2022/04/05 07:35:16;;;;;;;1.23;0.93;;;7.90;99.90;;;;;;5013349;28;20412;-72
2022/04/05 07:37:41;;;;;;;2.03;1.03;;;7.90;99.90;;;;;;5021382;28;20839;-73
2022/04/05 07:40:11;;;;;;;4.10;1.07;;;8.40;99.90;;;;;;5032712;28;20463;-73
2022/04/05 07:42:41;;;;;;;1.30;1.00;;;7.90;99.90;;;;;;5014237;28;20185;-72
2022/04/05 07:45:08;;;;;;;0.90;0.70;;;7.70;99.90;;;;;;5012748;28;20587;-72
2022/04/05 07:47:34;;;;;;;1.43;0.87;;;7.50;99.90;;;;;;5013011;28;20458;-72
2022/04/05 07:50:00;;;;;;;0.80;0.80;;;7.60;99.90;;;;;;5013190;28;20431;-71
2022/04/05 07:52:26;;;;;;;1.00;0.90;;;7.30;99.90;;;;;;5012728;28;20415;-72
2022/04/05 07:54:52;;;;;;;0.90;0.80;;;7.20;99.90;;;;;;5012714;28;20838;-72
2022/04/05 07:57:17;;;;;;;1.53;1.43;;;7.40;99.90;;;;;;5012653;28;20575;-72
2022/04/05 07:59:43;;;;;;;2.00;0.83;;;8.00;99.90;;;;;;5012839;28;20286;-73
2022/04/05 08:02:09;;;;;;;2.40;1.00;;;8.30;99.90;;;;;;5013207;28;20177;-72
2022/04/05 08:04:34;;;;;;;2.10;0.60;;;8.40;99.90;;;;;;5012758;28;20192;-72
2022/04/05 08:07:01;;;;;;;0.73;0.70;;;8.20;99.90;;;;;;5012811;28;20172;-72
2022/04/05 08:09:26;;;;;;;0.83;0.83;;;8.10;99.90;;;;;;5012553;28;20203;-72
2022/04/05 08:11:52;;;;;;;1.00;0.90;;;9.30;99.90;;;;;;5004266;28;20416;-73
2022/04/05 08:14:17;;;;;;;1.40;1.00;;;10.70;99.90;;;;;;4992988;28;20191;-72
2022/04/05 08:16:43;;;;;;;4.30;0.90;;;9.90;99.90;;;;;;4992811;28;20296;-72
2022/04/05 08:19:12;;;;;;;2.97;0.70;;;10.00;99.90;;;;;;4992621;28;20300;-72
2022/04/05 08:21:37;;;;;;;2.10;1.00;;;8.90;99.90;;;;;;4992998;28;20251;-72
2022/04/05 08:24:04;;;;;;;0.80;0.80;;;9.40;99.90;;;;;;4992763;28;20563;-72
2022/04/05 08:26:29;;;;;;;2.13;1.20;;;9.00;99.90;;;;;;4992631;28;20260;-72
2022/04/05 08:28:56;;;;;;;1.20;0.70;;;8.70;99.90;;;;;;4992926;28;20475;-73
2022/04/05 08:31:22;;;;;;;0.60;0.60;;;9.60;99.90;;;;;;4992756;28;20169;-72
2022/04/05 08:33:48;;;;;;;2.63;1.13;;;9.70;99.90;;;;;;4992573;28;20405;-72
2022/04/05 08:36:13;;;;;;;0.80;0.80;;;9.90;99.90;;;;;;4992430;28;20430;-71
2022/04/05 08:38:40;;;;;;;1.00;0.70;;;10.70;99.90;;;;;;5004029;28;20226;-71
2022/04/05 08:41:06;;;;;;;2.03;0.93;;;10.00;99.90;;;;;;5012337;28;20581;-73
2022/04/05 08:43:32;;;;;;;1.73;0.80;;;9.60;99.90;;;;;;5011850;28;20403;-72
2022/04/05 08:46:00;;;;;;;0.93;0.90;;;10.00;99.90;;;;;;5011616;28;20451;-72
2022/04/05 08:48:27;;;;;;;0.70;0.70;;;11.00;99.90;;;;;;5011588;28;20514;-72
2022/04/05 08:50:54;;;;;;;1.33;0.80;;;10.10;99.90;;;;;;5011833;28;20431;-73
2022/04/05 08:53:20;;;;;;;1.03;0.80;;;10.00;99.90;;;;;;5011560;28;20407;-71
2022/04/05 08:55:46;;;;;;;5.80;1.77;;;9.70;99.90;;;;;;5011740;28;20922;-72
2022/04/05 08:58:13;;;;;;;3.97;1.40;;;9.30;99.90;;;;;;5011252;28;20172;-73
2022/04/05 09:00:40;;;;;;;1.17;0.97;;;10.40;99.90;;;;;;5011801;28;20462;-71
2022/04/05 09:03:06;;;;;;;1.13;1.03;;;10.00;99.90;;;;;;5011573;28;20415;-72
2022/04/05 09:05:34;;;;;;;2.07;0.90;;;9.80;99.90;;;;;;5011439;28;20463;-72
2022/04/05 09:08:15;;;;;;;0.93;0.73;;;10.70;99.90;;;;;;5011470;28;20415;-72
2022/04/05 09:10:41;;;;;;;1.50;0.80;;;9.90;99.90;;;;;;5011362;28;20894;-72
2022/04/05 09:13:10;;;;;;;3.67;0.83;;;10.00;99.90;;;;;;5011634;28;20423;-73
2022/04/05 09:15:37;;;;;;;3.27;1.57;;;10.00;99.90;;;;;;5011399;28;20427;-71
2022/04/05 09:18:03;;;;;;;1.30;1.00;;;10.70;99.90;;;;;;5011573;28;20469;-72
2022/04/05 09:20:29;;;;;;;1.13;0.90;;;9.80;99.90;;;;;;5011485;28;20470;-73
2022/04/05 09:22:55;;;;;;;1.10;0.80;;;9.20;99.90;;;;;;5002767;28;20867;-72
2022/04/05 09:25:23;;;;;;;0.87;0.80;;;9.00;99.90;;;;;;5011534;28;20196;-73
2022/04/05 09:27:57;;;;;;;1.27;0.80;;;8.90;99.90;;;;;;5011630;28;20454;-73
2022/04/05 09:30:27;;;;;;;0.80;0.70;;;9.60;99.90;;;;;;5011521;28;20451;-73
2022/04/05 09:32:54;;;;;;;2.10;1.30;;;9.40;99.90;;;;;;5011256;28;20415;-72
2022/04/05 09:35:26;;;;;;;0.80;0.80;;;9.70;99.90;;;;;;5011062;28;20446;-73
2022/04/05 09:37:52;;;;;;;2.00;0.90;;;9.30;99.90;;;;;;5011247;28;20447;-73
2022/04/05 09:40:17;;;;;;;3.43;0.93;;;9.10;99.90;;;;;;5011278;28;20640;-72
2022/04/05 09:43:02;;;;;;;0.87;0.70;;;8.90;99.90;;;;;;5011439;28;20183;-73
2022/04/05 09:45:49;;;;;;;1.17;0.90;;;8.60;99.90;;;;;;5011129;28;20701;-73
2022/04/05 09:48:20;;;;;;;1.00;0.83;;;8.30;99.90;;;;;;5011375;28;20399;-71
2022/04/05 09:50:59;;;;;;;1.00;0.80;;;8.30;99.90;;;;;;5011295;28;20413;-73
2022/04/05 09:53:26;;;;;;;2.13;0.90;;;8.70;99.90;;;;;;5003823;28;20917;-72
2022/04/05 09:56:22;;;;;;;0.70;0.70;;;9.00;99.90;;;;;;5011178;28;20884;-72
2022/04/05 09:58:53;;;;;;;4.40;0.80;;;8.50;99.90;;;;;;4998630;28;20506;-72
2022/04/05 10:01:21;;;;;;;1.53;0.90;;;8.50;99.90;;;;;;5011369;28;21029;-73
2022/04/05 10:04:05;;;;;;;1.20;0.90;;;8.60;99.90;;;;;;5011040;28;20421;-73
2022/04/05 10:06:32;;;;;;;2.40;1.17;;;8.40;99.90;;;;;;5011031;28;20411;-73
2022/04/05 10:08:59;;;;;;;2.50;1.23;;;8.40;99.90;;;;;;5011955;28;20431;-73
2022/04/05 10:11:26;;;;;;;3.43;1.60;;;8.70;99.90;;;;;;5014992;28;20474;-73
2022/04/05 10:13:52;;;;;;;2.07;1.13;;;8.50;99.90;;;;;;5015039;28;20403;-72
2022/04/05 10:16:19;;;;;;;1.90;1.10;;;8.80;99.90;;;;;;5015026;28;20414;-72
2022/04/05 10:18:46;;;;;;;5.30;1.17;;;9.10;99.90;;;;;;5014668;28;20498;-73
2022/04/05 10:21:14;;;;;;;1.73;1.00;;;9.30;99.90;;;;;;5012338;28;20823;-72
2022/04/05 10:23:43;;;;;;;1.27;1.00;;;9.10;99.90;;;;;;4995228;28;20408;-72
2022/04/05 10:26:16;;;;;;;1.83;1.13;;;9.30;99.90;;;;;;5013313;28;20408;-72
2022/04/05 10:28:44;;;;;;;1.03;0.90;;;9.60;99.90;;;;;;5014626;28;20477;-72
2022/04/05 10:31:29;;;;;;;1.13;0.83;;;9.70;99.90;;;;;;5014426;28;20505;-72
2022/04/05 10:34:26;;;;;;;1.00;0.90;;;9.20;99.90;;;;;;5014674;28;20440;-72
2022/04/05 10:37:09;;;;;;;1.20;0.90;;;9.40;99.90;;;;;;5014598;28;20404;-72
2022/04/05 10:39:37;;;;;;;1.77;0.87;;;9.50;99.90;;;;;;5014683;28;20450;-72
2022/04/05 10:42:08;;;;;;;2.50;1.53;;;9.40;99.90;;;;;;5014069;28;20414;-73
2022/04/05 10:44:38;;;;;;;1.90;1.27;;;8.90;99.90;;;;;;5013884;28;20454;-71
2022/04/05 10:47:06;;;;;;;0.60;0.60;;;8.80;99.90;;;;;;5014260;28;20419;-71
2022/04/05 10:49:47;;;;;;;2.93;0.80;;;9.00;99.90;;;;;;5014054;28;20423;-72
2022/04/05 10:52:26;;;;;;;0.70;0.70;;;9.50;99.90;;;;;;5023644;28;20445;-72
2022/04/05 10:55:06;;;;;;;2.50;1.07;;;9.50;99.90;;;;;;5014659;28;20466;-72
2022/04/05 10:57:34;;;;;;;4.77;1.20;;;9.20;99.90;;;;;;5014083;28;20410;-72
2022/04/05 11:00:10;;;;;;;2.00;1.03;;;9.10;99.90;;;;;;5013785;28;20435;-72
2022/04/05 11:03:01;;;;;;;1.20;0.70;;;9.80;99.90;;;;;;5013805;28;20418;-73
2022/04/05 11:05:35;;;;;;;0.80;0.80;;;9.70;99.90;;;;;;5013861;28;20844;-72
2022/04/05 11:08:09;;;;;;;0.73;0.73;;;9.20;99.90;;;;;;5013971;28;20835;-72
2022/04/05 11:10:38;;;;;;;0.93;0.60;;;9.00;99.90;;;;;;5013630;28;20426;-72
2022/04/05 11:13:13;;;;;;;0.60;0.60;;;8.90;99.90;;;;;;5013695;28;20408;-71
2022/04/05 11:15:45;;;;;;;0.93;0.80;;;8.80;99.90;;;;;;5013729;28;20926;-72
2022/04/05 11:18:16;;;;;;;2.97;1.23;;;8.80;99.90;;;;;;5013742;28;20407;-73
2022/04/05 11:20:42;;;;;;;0.80;0.70;;;8.90;99.90;;;;;;5013206;28;20411;-75
2022/04/05 11:23:09;;;;;;;0.80;0.80;;;9.10;99.90;;;;;;5013615;28;20399;-72
2022/04/05 11:25:35;;;;;;;0.70;0.70;;;8.90;99.90;;;;;;5015495;28;20819;-72
2022/04/05 11:28:19;;;;;;;0.90;0.90;;;9.20;99.90;;;;;;5033289;28;20446;-71
2022/04/05 11:30:54;;;;;;;1.90;0.70;;;9.40;99.90;;;;;;5033210;28;20426;-72
2022/04/05 11:33:26;;;;;;;0.70;0.70;;;9.20;99.90;;;;;;5032983;28;20456;-72
2022/04/05 11:35:52;;;;;;;1.00;0.80;;;9.40;99.90;;;;;;5033067;28;20415;-72
2022/04/05 11:38:18;;;;;;;0.73;0.70;;;9.10;99.90;;;;;;5020203;28;20469;-73
2022/04/05 11:40:52;;;;;;;1.43;0.80;;;8.80;99.90;;;;;;5013459;28;20419;-73
2022/04/05 11:43:27;;;;;;;0.60;0.60;;;8.80;99.90;;;;;;5013397;28;20171;-74
2022/04/05 11:46:19;;;;;;;1.20;0.73;;;8.90;99.90;;;;;;5012781;28;20454;-72
2022/04/05 11:48:56;;;;;;;1.37;0.80;;;8.80;99.90;;;;;;5012502;28;20479;-72
2022/04/05 11:51:25;;;;;;;1.10;0.80;;;8.90;99.90;;;;;;5013124;28;20400;-72
2022/04/05 11:54:01;;;;;;;6.57;1.43;;;9.10;99.90;;;;;;5025012;28;20415;-73
2022/04/05 11:56:27;;;;;;;0.97;0.70;;;9.00;99.90;;;;;;5018458;28;20906;-73
2022/04/05 11:58:58;;;;;;;1.43;0.90;;;9.10;99.90;;;;;;5012947;28;20502;-73
2022/04/05 12:01:26;;;;;;;1.00;1.00;;;9.20;99.90;;;;;;5012984;28;20416;-73
2022/04/05 12:03:56;;;;;;;1.07;0.90;;;9.50;99.90;;;;;;5012519;28;20408;-72
2022/04/05 12:06:29;;;;;;;2.37;1.10;;;9.60;99.90;;;;;;5012654;28;20420;-73
2022/04/05 12:08:57;;;;;;;0.80;0.77;;;9.40;99.90;;;;;;5012760;28;20411;-72
2022/04/05 12:11:27;;;;;;;1.40;0.83;;;9.20;99.90;;;;;;5012897;28;20468;-72
2022/04/05 12:13:58;;;;;;;0.90;0.90;;;9.50;99.90;;;;;;5012811;28;20399;-72
2022/04/05 12:16:26;;;;;;;1.30;1.20;;;9.20;99.90;;;;;;5012710;28;20491;-72
2022/04/05 12:18:52;;;;;;;2.03;0.83;;;9.20;99.90;;;;;;5012487;28;20450;-73
2022/04/05 12:21:20;;;;;;;1.13;0.70;;;9.10;99.90;;;;;;5012417;28;20407;-73
2022/04/05 12:23:46;;;;;;;0.70;0.70;;;9.00;99.90;;;;;;5011643;28;20419;-72
2022/04/05 12:26:13;;;;;;;1.20;0.93;;;9.00;99.90;;;;;;5010899;28;20447;-73
2022/04/05 12:28:50;;;;;;;0.70;0.70;;;9.30;99.90;;;;;;5010439;28;20221;-72
2022/04/05 12:31:19;;;;;;;1.10;1.00;;;8.90;99.90;;;;;;5010963;28;20431;-75
2022/04/05 12:33:55;;;;;;;1.03;0.97;;;9.00;99.90;;;;;;5011529;28;20414;-73
2022/04/05 12:36:22;;;;;;;1.30;0.97;;;9.20;99.90;;;;;;5011724;28;20481;-72
2022/04/05 12:38:48;;;;;;;0.80;0.80;;;9.10;99.90;;;;;;5011863;28;20997;-73
2022/04/05 12:41:15;;;;;;;1.73;0.90;;;9.40;99.90;;;;;;5012450;28;20453;-72
2022/04/05 12:43:41;;;;;;;1.53;0.70;;;9.60;99.90;;;;;;5012032;28;20400;-71
2022/04/05 12:46:12;;;;;;;1.00;0.93;;;9.90;99.90;;;;;;5011818;28;20523;-70
2022/04/05 12:48:38;;;;;;;2.50;0.80;;;9.70;99.90;;;;;;5011996;28;20796;-73
2022/04/05 12:51:05;;;;;;;0.70;0.70;;;9.80;99.90;;;;;;5012073;28;20403;-74
2022/04/05 12:53:35;;;;;;;0.70;0.70;;;9.70;99.90;;;;;;5011528;28;20418;-74
2022/04/05 12:56:04;;;;;;;1.50;1.10;;;9.60;99.90;;;;;;5010771;28;20439;-73
2022/04/05 12:58:45;;;;;;;1.57;1.40;;;9.60;99.90;;;;;;5010434;28;20819;-73